Time;durP1;ratioP1;P1;durP2;ratioP2;P2;SDS_P1;SDS_P2;PMS_P1;PMS_P2;Temp;Humidity;BMP_temperature;BMP_pressure;BME280_temperature;BME280_humidity;BME280_pressure;Samples;Min_cycle;Max_cycle;Signal;HPM_P1;HPM_P2
2021/09/02 00:00:36;;;;;;;12.00;5.40;;;15.20;99.90;;;;;;4981940;28;20092;-75
2021/09/02 00:03:01;;;;;;;10.57;5.60;;;15.20;99.90;;;;;;4988527;28;20096;-76
2021/09/02 00:05:27;;;;;;;11.93;6.55;;;15.30;99.90;;;;;;4989458;28;20469;-76
2021/09/02 00:07:53;;;;;;;9.40;5.60;;;15.30;99.90;;;;;;4988207;28;20477;-76
2021/09/02 00:10:18;;;;;;;13.38;5.68;;;15.30;99.90;;;;;;4988824;28;20235;-76
2021/09/02 00:12:44;;;;;;;9.15;5.03;;;15.30;99.90;;;;;;4989326;28;20092;-76
2021/09/02 00:15:10;;;;;;;9.05;5.53;;;15.40;99.90;;;;;;4986584;28;20418;-75
2021/09/02 00:17:35;;;;;;;8.95;5.65;;;15.40;99.90;;;;;;4989519;28;20035;-75
2021/09/02 00:20:02;;;;;;;8.45;5.43;;;15.40;99.90;;;;;;4989507;28;20140;-75
2021/09/02 00:22:28;;;;;;;8.48;5.20;;;15.40;99.90;;;;;;4989004;28;20548;-75
2021/09/02 00:24:53;;;;;;;12.80;5.97;;;15.40;99.90;;;;;;4987539;28;20019;-75
2021/09/02 00:28:07;;;;;;;9.63;5.25;;;15.40;99.90;;;;;;4988406;28;20502;-75
2021/09/02 00:30:33;;;;;;;8.95;5.53;;;15.40;99.90;;;;;;4982207;28;20438;-75
2021/09/02 00:32:58;;;;;;;8.60;5.40;;;15.40;99.90;;;;;;4987637;28;20027;-75
2021/09/02 00:35:24;;;;;;;7.93;5.75;;;15.40;99.90;;;;;;4987919;28;20022;-75
2021/09/02 00:37:49;;;;;;;11.38;5.70;;;15.40;99.90;;;;;;4987695;28;20230;-75
2021/09/02 00:40:15;;;;;;;9.98;5.70;;;15.40;99.90;;;;;;4988872;28;20049;-75
2021/09/02 00:42:40;;;;;;;9.18;5.68;;;15.30;99.90;;;;;;4985697;28;20385;-75
2021/09/02 00:45:06;;;;;;;9.57;5.50;;;15.30;99.90;;;;;;4988232;28;20034;-76
2021/09/02 00:47:32;;;;;;;9.35;5.57;;;15.30;99.90;;;;;;4989007;28;20366;-75
2021/09/02 00:49:57;;;;;;;13.88;5.82;;;15.30;99.90;;;;;;4989147;28;20202;-75
2021/09/02 00:52:26;;;;;;;8.52;4.97;;;15.30;99.90;;;;;;4987392;28;20034;-75
2021/09/02 00:54:54;;;;;;;11.50;5.45;;;15.20;99.90;;;;;;4987992;28;20038;-75
2021/09/02 00:57:23;;;;;;;9.40;5.28;;;15.30;99.90;;;;;;4984053;28;20113;-76
2021/09/02 00:59:58;;;;;;;7.60;5.03;;;15.20;99.90;;;;;;4982256;28;20077;-75
2021/09/02 01:02:26;;;;;;;8.48;5.03;;;15.20;99.90;;;;;;4986133;28;20026;-75
2021/09/02 01:04:58;;;;;;;6.20;4.63;;;15.10;99.90;;;;;;4987588;28;20022;-76
2021/09/02 01:07:28;;;;;;;7.25;5.25;;;15.10;99.90;;;;;;4987180;28;20026;-75
2021/09/02 01:09:56;;;;;;;9.95;5.75;;;15.10;99.90;;;;;;4987461;28;21742;-75
2021/09/02 01:12:28;;;;;;;8.82;5.85;;;15.10;99.90;;;;;;4987889;28;20115;-75
2021/09/02 01:14:55;;;;;;;9.30;5.35;;;15.10;99.90;;;;;;4984947;28;20053;-76
2021/09/02 01:17:22;;;;;;;9.27;5.10;;;15.10;99.90;;;;;;4988283;28;20106;-75
2021/09/02 01:19:55;;;;;;;9.55;5.63;;;15.10;99.90;;;;;;4983837;28;20041;-76
2021/09/02 01:22:25;;;;;;;9.43;5.35;;;15.10;99.90;;;;;;4985915;28;20039;-75
2021/09/02 01:24:51;;;;;;;7.47;5.20;;;15.00;99.90;;;;;;4982128;28;20026;-75
2021/09/02 01:27:18;;;;;;;8.27;5.30;;;15.00;99.90;;;;;;4986920;28;20031;-75
2021/09/02 01:29:58;;;;;;;7.78;5.15;;;15.00;99.90;;;;;;4986033;28;20026;-75
2021/09/02 01:32:33;;;;;;;7.40;4.63;;;15.00;99.90;;;;;;4986744;28;20027;-75
2021/09/02 01:35:03;;;;;;;9.55;4.97;;;15.00;99.90;;;;;;4981456;28;20041;-76
2021/09/02 01:37:54;;;;;;;8.45;5.32;;;15.00;99.90;;;;;;4984096;28;20033;-76
2021/09/02 01:40:23;;;;;;;8.35;5.18;;;15.10;99.90;;;;;;4988135;28;20041;-76
2021/09/02 01:42:50;;;;;;;7.38;4.75;;;15.10;99.90;;;;;;4988912;28;20578;-75
2021/09/02 01:45:19;;;;;;;7.47;5.15;;;15.10;99.90;;;;;;4985768;28;20495;-76
2021/09/02 01:47:50;;;;;;;7.38;4.68;;;15.10;99.90;;;;;;4991165;28;20543;-76
2021/09/02 01:50:22;;;;;;;8.55;5.32;;;15.10;99.90;;;;;;4981383;28;20018;-75
2021/09/02 01:52:53;;;;;;;8.52;5.50;;;15.10;99.90;;;;;;4992047;28;20045;-75
2021/09/02 01:55:21;;;;;;;10.80;5.85;;;15.20;99.90;;;;;;4984348;28;20474;-76
2021/09/02 01:57:51;;;;;;;16.63;5.40;;;15.20;99.90;;;;;;4988324;28;20050;-75
2021/09/02 02:00:18;;;;;;;10.27;6.35;;;15.20;99.90;;;;;;4988113;28;20148;-76
2021/09/02 02:02:44;;;;;;;8.18;5.15;;;15.20;99.90;;;;;;4992108;28;20026;-75
2021/09/02 02:05:11;;;;;;;7.68;5.35;;;15.20;99.90;;;;;;4989037;28;20724;-76
2021/09/02 02:07:40;;;;;;;8.18;5.20;;;15.20;99.90;;;;;;4991067;28;20062;-76
2021/09/02 02:10:12;;;;;;;10.85;5.38;;;15.20;99.90;;;;;;4985874;28;20030;-76
2021/09/02 02:12:38;;;;;;;7.28;5.30;;;15.20;99.90;;;;;;4992554;28;20097;-75
2021/09/02 02:15:05;;;;;;;10.57;5.82;;;15.20;99.90;;;;;;4991544;28;20030;-75
2021/09/02 02:17:31;;;;;;;12.70;5.43;;;15.20;99.90;;;;;;4977848;28;20034;-75
2021/09/02 02:19:56;;;;;;;9.77;5.60;;;15.20;99.90;;;;;;4990538;28;20042;-75
2021/09/02 02:22:21;;;;;;;9.60;5.70;;;15.10;99.90;;;;;;4988632;28;20026;-75
2021/09/02 02:24:47;;;;;;;11.10;5.45;;;15.10;99.90;;;;;;4988420;28;20050;-76
2021/09/02 02:27:12;;;;;;;5.85;4.95;;;15.00;99.90;;;;;;4991574;28;20022;-76
2021/09/02 02:29:38;;;;;;;10.25;5.72;;;15.00;99.90;;;;;;4987948;28;20105;-75
2021/09/02 02:32:04;;;;;;;9.02;5.20;;;14.90;99.90;;;;;;4990662;28;20042;-75
2021/09/02 02:34:29;;;;;;;9.27;6.13;;;14.90;99.90;;;;;;4991575;28;20133;-75
2021/09/02 02:36:55;;;;;;;10.73;5.93;;;14.80;99.90;;;;;;4990194;28;20034;-76
2021/09/02 02:39:20;;;;;;;10.18;6.05;;;14.80;99.90;;;;;;4989360;28;20760;-75
2021/09/02 02:41:46;;;;;;;12.18;5.47;;;14.80;99.90;;;;;;4989949;28;20022;-76
2021/09/02 02:44:11;;;;;;;9.93;5.97;;;14.80;99.90;;;;;;4988495;28;20014;-76
2021/09/02 02:46:37;;;;;;;8.23;5.85;;;14.80;99.90;;;;;;4986577;28;20034;-76
2021/09/02 02:49:03;;;;;;;11.93;5.90;;;14.80;99.90;;;;;;4976330;28;20485;-75
2021/09/02 02:51:28;;;;;;;9.02;5.72;;;14.70;99.90;;;;;;4982301;28;20559;-75
2021/09/02 02:53:54;;;;;;;8.65;5.43;;;14.70;99.90;;;;;;4982402;28;20031;-75
2021/09/02 02:56:20;;;;;;;7.93;5.45;;;14.70;99.90;;;;;;4979065;28;20035;-75
2021/09/02 02:58:47;;;;;;;7.28;5.25;;;14.60;99.90;;;;;;4983663;28;20057;-75
2021/09/02 03:01:12;;;;;;;11.02;5.10;;;14.60;99.90;;;;;;4989775;28;20026;-75
2021/09/02 03:03:38;;;;;;;11.02;5.82;;;14.60;99.90;;;;;;4987944;28;20379;-76
2021/09/02 03:06:03;;;;;;;10.27;5.80;;;14.60;99.90;;;;;;4990426;28;20023;-75
2021/09/02 03:08:29;;;;;;;12.50;5.95;;;14.60;99.90;;;;;;4990460;28;20382;-76
2021/09/02 03:10:54;;;;;;;10.10;6.30;;;14.60;99.90;;;;;;4991151;28;20492;-75
2021/09/02 03:13:20;;;;;;;10.20;6.13;;;14.60;99.90;;;;;;4988404;28;20109;-76
2021/09/02 03:15:45;;;;;;;10.18;6.03;;;14.60;99.90;;;;;;4989297;28;20037;-75
2021/09/02 03:18:11;;;;;;;10.68;6.15;;;14.60;99.90;;;;;;4989654;28;20505;-75
2021/09/02 03:20:36;;;;;;;11.27;5.85;;;14.60;99.90;;;;;;4990165;28;20049;-75
2021/09/02 03:23:02;;;;;;;9.77;5.55;;;14.60;99.90;;;;;;4991084;28;20031;-76
2021/09/02 03:25:27;;;;;;;10.82;6.22;;;14.60;99.90;;;;;;4986493;28;20032;-75
2021/09/02 03:27:53;;;;;;;8.93;5.45;;;14.60;99.90;;;;;;4988634;28;20026;-76
2021/09/02 03:30:18;;;;;;;10.60;5.60;;;14.60;99.90;;;;;;4975251;28;20517;-75
2021/09/02 03:32:44;;;;;;;7.97;5.75;;;14.70;99.90;;;;;;4988379;28;20484;-75
2021/09/02 03:35:10;;;;;;;8.68;5.60;;;14.70;99.90;;;;;;4986529;28;20026;-75
2021/09/02 03:37:35;;;;;;;11.00;6.13;;;14.70;99.90;;;;;;4986614;28;20026;-75
2021/09/02 03:40:01;;;;;;;13.00;6.18;;;14.70;99.90;;;;;;4980977;28;20026;-75
2021/09/02 03:42:27;;;;;;;6.47;5.20;;;14.70;99.90;;;;;;4983692;28;20489;-76
2021/09/02 03:44:52;;;;;;;10.70;5.35;;;14.70;99.90;;;;;;4986723;28;20030;-76
2021/09/02 03:47:18;;;;;;;14.88;5.97;;;14.70;99.90;;;;;;4989496;28;20520;-75
2021/09/02 03:49:43;;;;;;;10.35;5.78;;;14.60;99.90;;;;;;4987770;28;20014;-75
2021/09/02 03:52:09;;;;;;;11.15;5.38;;;14.60;99.90;;;;;;4989706;28;20401;-75
2021/09/02 03:54:34;;;;;;;8.55;5.47;;;14.60;99.90;;;;;;4985434;28;20080;-76
2021/09/02 03:57:00;;;;;;;8.05;5.00;;;14.50;99.90;;;;;;4986689;28;20065;-76
2021/09/02 03:59:25;;;;;;;8.98;5.72;;;14.50;99.90;;;;;;4987496;28;20488;-76
2021/09/02 04:01:51;;;;;;;10.93;5.60;;;14.50;99.90;;;;;;4983811;28;20575;-76
2021/09/02 04:04:17;;;;;;;7.90;5.32;;;14.50;99.90;;;;;;4984011;28;20081;-76
2021/09/02 04:06:42;;;;;;;9.00;5.50;;;14.40;99.90;;;;;;4983751;28;20027;-75
2021/09/02 04:09:07;;;;;;;10.85;5.78;;;14.40;99.90;;;;;;4978580;28;20014;-75
2021/09/02 04:11:33;;;;;;;8.50;5.80;;;14.40;99.90;;;;;;4988991;28;20026;-75
2021/09/02 04:13:58;;;;;;;8.90;5.40;;;14.40;99.90;;;;;;4981877;28;20023;-75
2021/09/02 04:16:24;;;;;;;10.85;5.97;;;14.40;99.90;;;;;;4985437;28;20111;-76
2021/09/02 04:18:49;;;;;;;8.43;5.63;;;14.40;99.90;;;;;;4987775;28;20033;-75
2021/09/02 04:21:15;;;;;;;11.40;6.32;;;14.40;99.90;;;;;;4988947;28;20027;-75
2021/09/02 04:23:43;;;;;;;13.65;6.45;;;14.30;99.90;;;;;;4990986;28;20100;-75
2021/09/02 04:26:09;;;;;;;11.75;6.65;;;14.30;99.90;;;;;;4984855;28;20045;-76
2021/09/02 04:28:38;;;;;;;13.95;6.90;;;14.30;99.90;;;;;;4990572;28;20022;-76
2021/09/02 04:31:03;;;;;;;9.98;6.35;;;14.30;99.90;;;;;;4988324;28;20033;-75
2021/09/02 04:33:28;;;;;;;14.52;6.78;;;14.40;99.90;;;;;;4983236;28;20440;-75
2021/09/02 04:35:55;;;;;;;12.45;6.28;;;14.30;99.90;;;;;;4987943;28;20113;-75
2021/09/02 04:38:21;;;;;;;13.85;6.25;;;14.40;99.90;;;;;;4987812;28;20030;-76
2021/09/02 04:40:48;;;;;;;13.95;6.40;;;14.40;99.90;;;;;;4985924;28;20030;-76
2021/09/02 04:43:13;;;;;;;13.60;6.22;;;14.40;99.90;;;;;;4985757;28;20026;-76
2021/09/02 04:45:39;;;;;;;12.15;6.28;;;14.40;99.90;;;;;;4982318;28;20473;-75
2021/09/02 04:48:25;;;;;;;8.65;5.82;;;14.40;99.90;;;;;;4988992;28;20378;-76
2021/09/02 04:50:51;;;;;;;10.27;5.93;;;14.40;99.90;;;;;;4984109;28;20056;-75
2021/09/02 04:53:17;;;;;;;11.57;5.75;;;14.40;99.90;;;;;;4987496;28;20389;-75
2021/09/02 04:55:43;;;;;;;11.43;5.80;;;14.40;99.90;;;;;;4986442;28;20026;-75
2021/09/02 04:58:10;;;;;;;13.20;6.75;;;14.40;99.90;;;;;;4988400;28;20018;-76
2021/09/02 05:00:38;;;;;;;12.63;6.57;;;14.40;99.90;;;;;;4986406;28;20558;-75
2021/09/02 05:03:07;;;;;;;9.70;5.85;;;14.40;99.90;;;;;;4988936;28;20042;-72
2021/09/02 05:05:33;;;;;;;10.95;6.13;;;14.40;99.90;;;;;;4985326;28;20033;-71
2021/09/02 05:07:59;;;;;;;12.30;5.80;;;14.40;99.90;;;;;;4984701;28;20404;-72
2021/09/02 05:10:26;;;;;;;9.43;5.53;;;14.50;99.90;;;;;;4987316;28;20049;-73
2021/09/02 05:12:51;;;;;;;10.50;5.60;;;14.50;99.90;;;;;;4988967;28;20030;-74
2021/09/02 05:15:17;;;;;;;9.32;5.80;;;14.50;99.90;;;;;;4986105;28;20483;-74
2021/09/02 05:17:44;;;;;;;10.45;6.00;;;14.50;99.90;;;;;;4989655;28;20038;-73
2021/09/02 05:20:10;;;;;;;10.00;6.18;;;14.50;99.90;;;;;;4990343;28;20031;-72
2021/09/02 05:22:40;;;;;;;12.68;6.32;;;14.50;99.90;;;;;;4987737;28;20069;-74
2021/09/02 05:25:06;;;;;;;9.07;5.82;;;14.50;99.90;;;;;;4987387;28;20129;-73
2021/09/02 05:27:32;;;;;;;11.63;5.65;;;14.50;99.90;;;;;;4990927;28;20560;-73
2021/09/02 05:30:30;;;;;;;11.57;5.90;;;14.50;99.90;;;;;;4991173;28;20150;-73
2021/09/02 05:32:55;;;;;;;13.27;5.80;;;14.60;99.90;;;;;;4983916;28;20035;-74
2021/09/02 05:35:21;;;;;;;12.05;5.63;;;14.60;99.90;;;;;;4990663;28;20038;-73
2021/09/02 05:37:46;;;;;;;10.48;5.90;;;14.60;99.90;;;;;;4979660;28;20023;-73
2021/09/02 05:40:12;;;;;;;17.38;6.38;;;14.60;99.90;;;;;;4988095;28;20389;-73
2021/09/02 05:42:38;;;;;;;11.82;5.97;;;14.60;99.90;;;;;;4992442;28;20038;-73
2021/09/02 05:45:05;;;;;;;11.27;6.03;;;14.60;99.90;;;;;;4991004;28;20022;-72
2021/09/02 05:47:30;;;;;;;11.43;6.10;;;14.70;99.90;;;;;;4989133;28;20029;-74
2021/09/02 05:49:56;;;;;;;10.82;6.10;;;14.70;99.90;;;;;;4992149;28;20385;-73
2021/09/02 05:52:21;;;;;;;10.40;5.95;;;14.70;99.90;;;;;;4986100;28;20043;-74
2021/09/02 05:54:53;;;;;;;15.75;7.03;;;14.80;99.90;;;;;;4983719;28;20031;-72
2021/09/02 05:57:18;;;;;;;13.57;6.57;;;14.80;99.90;;;;;;4989313;28;20026;-72
2021/09/02 05:59:43;;;;;;;8.93;5.65;;;14.80;99.90;;;;;;4987157;28;20053;-73
2021/09/02 06:02:09;;;;;;;11.90;5.95;;;14.80;99.90;;;;;;4989910;28;20030;-73
2021/09/02 06:04:35;;;;;;;12.20;6.38;;;14.90;99.90;;;;;;4986365;28;20085;-73
2021/09/02 06:07:00;;;;;;;9.18;5.30;;;14.90;99.90;;;;;;4987192;28;20041;-72
2021/09/02 06:09:25;;;;;;;15.80;6.35;;;15.00;99.90;;;;;;4990064;28;20026;-73
2021/09/02 06:11:51;;;;;;;10.77;5.80;;;15.00;99.90;;;;;;4986002;28;20334;-72
2021/09/02 06:14:16;;;;;;;12.73;6.75;;;15.00;99.90;;;;;;4989967;28;20023;-72
2021/09/02 06:16:42;;;;;;;11.27;6.28;;;15.00;99.90;;;;;;4988633;28;20073;-73
2021/09/02 06:19:07;;;;;;;12.38;5.70;;;15.10;99.90;;;;;;4987268;28;20049;-74
2021/09/02 06:21:33;;;;;;;12.85;5.93;;;15.20;99.90;;;;;;4991352;28;20085;-83
2021/09/02 06:23:58;;;;;;;12.63;5.68;;;15.20;99.90;;;;;;4990858;28;20034;-72
2021/09/02 06:26:24;;;;;;;11.75;5.93;;;15.30;99.90;;;;;;4989292;28;20026;-72
2021/09/02 06:28:49;;;;;;;18.23;5.68;;;15.30;99.90;;;;;;4989979;28;20077;-73
2021/09/02 06:31:21;;;;;;;10.05;5.53;;;15.40;99.90;;;;;;4988865;28;20031;-72
2021/09/02 06:33:46;;;;;;;10.52;6.28;;;15.40;99.90;;;;;;4988290;28;20133;-73
2021/09/02 06:36:12;;;;;;;19.92;6.57;;;15.40;99.90;;;;;;4987306;28;20121;-72
2021/09/02 06:38:37;;;;;;;13.68;6.45;;;15.50;99.90;;;;;;4990346;28;20041;-73
2021/09/02 06:41:03;;;;;;;15.00;5.95;;;15.50;99.90;;;;;;4988088;28;20558;-72
2021/09/02 06:43:28;;;;;;;12.38;5.68;;;15.50;99.90;;;;;;4990793;28;20027;-73
2021/09/02 06:45:54;;;;;;;9.57;5.53;;;15.50;99.90;;;;;;4985124;28;20019;-73
2021/09/02 06:48:19;;;;;;;10.77;5.63;;;15.60;99.90;;;;;;4985268;28;20481;-75
2021/09/02 06:50:47;;;;;;;11.30;5.57;;;15.60;99.90;;;;;;4986439;28;20046;-75
2021/09/02 06:53:13;;;;;;;9.07;5.38;;;15.60;99.90;;;;;;4987129;28;20030;-75
2021/09/02 06:55:39;;;;;;;11.55;5.20;;;15.60;99.90;;;;;;4988445;28;20026;-74
2021/09/02 06:58:04;;;;;;;8.50;4.80;;;15.60;99.90;;;;;;4989397;28;20030;-74
2021/09/02 07:00:30;;;;;;;11.73;5.53;;;15.60;99.90;;;;;;4985178;28;20065;-74
2021/09/02 07:02:58;;;;;;;15.00;6.18;;;15.70;99.90;;;;;;4986529;28;20030;-74
2021/09/02 07:05:26;;;;;;;15.48;5.50;;;15.70;99.90;;;;;;4983182;28;20351;-74
2021/09/02 07:07:53;;;;;;;13.02;6.18;;;15.70;99.90;;;;;;4982791;28;20072;-74
2021/09/02 07:10:19;;;;;;;10.57;5.32;;;15.80;99.90;;;;;;4974281;28;20035;-74
2021/09/02 07:12:44;;;;;;;9.82;5.38;;;15.80;99.90;;;;;;4979442;28;20072;-70
2021/09/02 07:15:10;;;;;;;16.45;5.68;;;15.90;99.90;;;;;;4984936;28;20038;-72
2021/09/02 07:17:36;;;;;;;14.43;5.68;;;15.90;99.90;;;;;;4988963;28;20035;-72
2021/09/02 07:20:02;;;;;;;8.65;5.15;;;16.00;99.90;;;;;;4990253;28;20093;-72
2021/09/02 07:22:27;;;;;;;13.50;5.53;;;16.10;99.90;;;;;;4990184;28;20033;-72
2021/09/02 07:24:53;;;;;;;12.32;5.53;;;16.20;99.90;;;;;;4989358;28;20031;-73
2021/09/02 07:27:18;;;;;;;21.33;6.15;;;16.20;99.90;;;;;;4990413;28;20110;-73
2021/09/02 07:29:44;;;;;;;15.30;6.80;;;16.30;99.90;;;;;;4987521;28;20504;-73
2021/09/02 07:32:09;;;;;;;10.98;6.30;;;16.30;99.90;;;;;;4986202;28;20026;-74
2021/09/02 07:34:35;;;;;;;14.30;6.45;;;16.30;99.90;;;;;;4990022;28;20039;-73
2021/09/02 07:37:01;;;;;;;12.50;6.68;;;16.30;99.90;;;;;;4989565;28;20049;-72
2021/09/02 07:39:29;;;;;;;10.50;5.53;;;16.30;99.90;;;;;;4988489;28;20093;-72
2021/09/02 07:41:55;;;;;;;11.52;6.35;;;16.30;99.90;;;;;;4984826;28;20029;-73
2021/09/02 07:44:21;;;;;;;9.93;5.80;;;16.40;99.90;;;;;;4988419;28;20026;-73
2021/09/02 07:46:46;;;;;;;13.00;6.47;;;16.40;99.90;;;;;;4988653;28;20595;-72
2021/09/02 07:49:12;;;;;;;12.10;6.53;;;16.40;99.90;;;;;;4983431;28;20037;-76
2021/09/02 07:51:38;;;;;;;10.25;5.72;;;16.40;99.90;;;;;;4988104;28;20026;-75
2021/09/02 07:54:03;;;;;;;12.40;7.07;;;16.40;99.90;;;;;;4989369;28;20037;-74
2021/09/02 07:56:29;;;;;;;16.30;7.22;;;16.40;99.90;;;;;;4983862;28;20398;-75
2021/09/02 07:58:55;;;;;;;14.52;7.63;;;16.40;99.90;;;;;;4981491;28;20393;-76
2021/09/02 08:01:22;;;;;;;19.13;7.47;;;16.40;99.90;;;;;;4984554;28;20040;-76
2021/09/02 08:03:48;;;;;;;12.68;7.70;;;16.50;99.90;;;;;;4987768;28;20022;-76
2021/09/02 08:06:14;;;;;;;15.63;7.90;;;16.50;99.90;;;;;;4985884;28;20022;-75
2021/09/02 08:08:40;;;;;;;13.02;7.95;;;16.50;99.90;;;;;;4979674;28;20037;-76
2021/09/02 08:11:05;;;;;;;11.93;6.88;;;16.60;99.90;;;;;;4973126;28;20041;-75
2021/09/02 08:13:31;;;;;;;13.80;7.85;;;16.60;99.90;;;;;;4980245;28;20034;-79
2021/09/02 08:15:56;;;;;;;15.27;7.82;;;16.60;99.90;;;;;;4985759;28;20544;-71
2021/09/02 08:18:22;;;;;;;12.85;7.32;;;16.60;99.90;;;;;;4980867;28;20080;-73
2021/09/02 08:20:47;;;;;;;13.63;8.48;;;16.70;99.90;;;;;;4978773;28;20048;-72
2021/09/02 08:23:13;;;;;;;12.32;7.63;;;16.70;99.90;;;;;;4983337;28;20039;-72
2021/09/02 08:25:38;;;;;;;12.77;7.07;;;16.70;99.90;;;;;;4983227;28;20038;-73
2021/09/02 08:28:04;;;;;;;13.80;7.38;;;16.90;99.90;;;;;;4985592;28;20033;-73
2021/09/02 08:30:30;;;;;;;10.95;6.72;;;17.10;99.90;;;;;;4985947;28;20038;-72
2021/09/02 08:32:56;;;;;;;12.18;7.15;;;17.30;99.90;;;;;;4983946;28;20034;-73
2021/09/02 08:35:28;;;;;;;11.65;6.13;;;17.30;99.90;;;;;;4982994;28;20049;-73
2021/09/02 08:37:59;;;;;;;10.85;6.13;;;17.40;99.90;;;;;;4978518;28;20042;-72
2021/09/02 08:40:27;;;;;;;9.43;5.97;;;17.40;99.90;;;;;;4982037;28;20169;-73
2021/09/02 08:42:54;;;;;;;9.73;6.47;;;17.20;99.90;;;;;;4978404;28;20035;-72
2021/09/02 08:45:21;;;;;;;10.23;6.55;;;17.10;99.90;;;;;;4979961;28;20027;-73
2021/09/02 08:47:49;;;;;;;13.40;6.60;;;17.00;99.90;;;;;;4983956;28;20026;-73
2021/09/02 08:50:17;;;;;;;9.80;6.50;;;17.00;99.90;;;;;;4987885;28;20105;-72
2021/09/02 08:52:42;;;;;;;8.45;6.53;;;17.00;99.90;;;;;;4991281;28;20497;-73
2021/09/02 08:55:09;;;;;;;10.38;6.10;;;17.10;99.90;;;;;;4991012;28;20066;-73
2021/09/02 08:57:34;;;;;;;11.00;6.13;;;17.20;99.90;;;;;;4992029;28;20034;-73
2021/09/02 09:00:00;;;;;;;11.95;6.50;;;17.30;99.90;;;;;;4987598;28;20053;-74
2021/09/02 09:02:28;;;;;;;13.55;6.50;;;17.40;99.90;;;;;;4990641;28;20109;-73
2021/09/02 09:05:09;;;;;;;12.85;7.20;;;17.50;99.90;;;;;;4990781;28;20041;-74
2021/09/02 09:07:45;;;;;;;9.90;6.10;;;17.70;99.90;;;;;;4993072;28;20075;-73
2021/09/02 09:10:17;;;;;;;7.55;5.15;;;17.80;99.90;;;;;;4992865;28;20030;-73
2021/09/02 09:12:56;;;;;;;9.63;5.13;;;17.90;99.90;;;;;;4993440;28;20117;-73
2021/09/02 09:15:25;;;;;;;14.45;5.90;;;17.90;99.90;;;;;;4991553;28;20459;-74
2021/09/02 09:17:53;;;;;;;10.90;5.40;;;17.90;99.90;;;;;;4993162;28;20084;-74
2021/09/02 09:20:21;;;;;;;7.78;5.65;;;17.90;99.90;;;;;;4992411;28;20026;-73
2021/09/02 09:22:54;;;;;;;8.57;5.57;;;17.90;99.90;;;;;;4994644;28;20026;-74
2021/09/02 09:25:23;;;;;;;10.30;6.50;;;17.90;99.90;;;;;;4988484;28;20030;-74
2021/09/02 09:27:50;;;;;;;8.07;5.40;;;18.00;99.90;;;;;;4988088;28;20106;-74
2021/09/02 09:30:25;;;;;;;9.35;5.25;;;18.00;99.90;;;;;;4991589;28;20105;-77
2021/09/02 09:33:03;;;;;;;8.45;5.30;;;18.00;99.90;;;;;;4985598;28;20022;-76
2021/09/02 09:35:56;;;;;;;8.20;5.60;;;18.00;99.90;;;;;;4995349;28;20058;-76
2021/09/02 09:38:23;;;;;;;8.68;5.32;;;18.10;99.90;;;;;;4987847;28;20586;-75
2021/09/02 09:40:51;;;;;;;10.73;5.93;;;18.10;99.90;;;;;;4993936;28;20033;-75
2021/09/02 09:43:26;;;;;;;8.23;5.47;;;18.10;99.90;;;;;;4990728;28;20018;-74
2021/09/02 09:45:52;;;;;;;8.55;5.50;;;18.30;99.90;;;;;;4985260;28;20026;-75
2021/09/02 09:48:27;;;;;;;11.13;6.72;;;18.30;99.90;;;;;;4988418;28;20023;-76
2021/09/02 09:51:18;;;;;;;8.60;5.78;;;18.40;99.90;;;;;;4986264;28;20069;-76
2021/09/02 09:53:50;;;;;;;8.90;5.60;;;18.50;99.90;;;;;;4986713;28;20104;-76
2021/09/02 09:56:20;;;;;;;10.60;6.10;;;18.60;99.90;;;;;;4984812;28;20030;-76
2021/09/02 09:58:50;;;;;;;12.45;5.75;;;18.60;99.90;;;;;;4989004;28;20660;-75
2021/09/02 10:01:16;;;;;;;9.05;5.53;;;18.70;99.90;;;;;;4984223;28;20109;-75
2021/09/02 10:03:42;;;;;;;8.52;5.38;;;18.70;99.90;;;;;;4979631;28;20279;-76
2021/09/02 10:06:10;;;;;;;8.77;5.13;;;18.60;99.90;;;;;;4984774;28;20029;-75
2021/09/02 10:08:42;;;;;;;8.32;4.60;;;18.60;99.90;;;;;;4987240;28;20113;-75
2021/09/02 10:11:11;;;;;;;7.93;5.32;;;18.60;99.90;;;;;;4984286;28;20023;-76
2021/09/02 10:14:01;;;;;;;9.85;5.03;;;18.70;99.90;;;;;;4987699;28;20121;-76
2021/09/02 10:16:27;;;;;;;6.60;4.72;;;18.70;99.90;;;;;;4980575;28;20045;-76
2021/09/02 10:18:55;;;;;;;7.10;5.15;;;18.70;99.90;;;;;;4984353;28;20034;-75
2021/09/02 10:21:52;;;;;;;7.70;5.38;;;18.70;99.90;;;;;;4979790;28;20038;-76
2021/09/02 10:24:39;;;;;;;9.60;6.10;;;18.60;99.90;;;;;;4981131;28;20050;-76
2021/09/02 10:27:16;;;;;;;8.68;5.25;;;18.60;99.90;;;;;;4985788;28;20396;-76
2021/09/02 10:29:42;;;;;;;11.68;5.10;;;18.60;99.90;;;;;;4985246;28;20018;-75
2021/09/02 10:32:28;;;;;;;8.70;5.90;;;18.70;99.90;;;;;;4988722;28;20038;-76
2021/09/02 10:35:20;;;;;;;9.65;5.35;;;18.70;99.90;;;;;;4985406;28;20038;-77
2021/09/02 10:37:45;;;;;;;7.57;5.03;;;18.90;99.90;;;;;;4989772;28;20034;-82
2021/09/02 10:40:17;;;;;;;11.18;5.78;;;19.00;99.90;;;;;;4986925;28;20031;-79
2021/09/02 10:42:43;;;;;;;8.45;5.40;;;19.10;99.90;;;;;;4989140;28;20489;-78
2021/09/02 10:45:27;;;;;;;8.80;4.97;;;19.20;99.90;;;;;;4990195;28;20383;-75
2021/09/02 10:48:06;;;;;;;9.02;5.30;;;19.30;99.90;;;;;;4986962;28;20548;-73
2021/09/02 10:50:43;;;;;;;9.18;5.60;;;19.40;99.90;;;;;;4983949;28;20075;-77
2021/09/02 10:53:13;;;;;;;13.45;6.25;;;19.50;99.90;;;;;;4987575;28;20030;-78
2021/09/02 10:55:48;;;;;;;8.90;5.13;;;19.50;99.90;;;;;;4989626;28;20034;-75
2021/09/02 10:58:36;;;;;;;9.30;5.22;;;19.60;99.90;;;;;;4986775;28;20038;-74
2021/09/02 11:01:24;;;;;;;7.75;4.65;;;19.70;99.90;;;;;;4981050;28;20050;-74
2021/09/02 11:03:51;;;;;;;9.20;5.50;;;19.80;99.90;;;;;;4985417;28;20109;-75
2021/09/02 11:06:16;;;;;;;10.45;5.32;;;19.90;99.90;;;;;;4990695;28;20038;-75
2021/09/02 11:08:42;;;;;;;9.27;5.22;;;19.80;99.90;;;;;;4988362;28;20023;-74
2021/09/02 11:11:16;;;;;;;9.32;5.00;;;19.90;99.90;;;;;;4988771;28;20073;-75
2021/09/02 11:13:43;;;;;;;9.63;4.47;;;19.90;99.90;;;;;;4983904;28;20042;-74
2021/09/02 11:16:14;;;;;;;7.88;4.72;;;19.90;99.90;;;;;;4984613;28;20470;-74
2021/09/02 11:18:48;;;;;;;8.53;4.80;;;20.20;99.90;;;;;;4981998;28;20031;-74
2021/09/02 11:21:34;;;;;;;7.40;4.63;;;20.30;99.90;;;;;;4999605;28;20326;-73
2021/09/02 11:24:07;;;;;;;9.18;4.70;;;20.70;97.10;;;;;;4984419;28;20046;-74
2021/09/02 11:26:33;;;;;;;8.45;4.68;;;20.90;96.10;;;;;;4986892;28;20053;-74
2021/09/02 11:29:00;;;;;;;5.72;3.60;;;21.30;94.60;;;;;;4989323;28;20054;-74
2021/09/02 11:31:25;;;;;;;11.73;4.18;;;21.60;97.00;;;;;;4988430;28;20037;-74
2021/09/02 11:33:55;;;;;;;11.95;4.38;;;21.80;93.80;;;;;;4988674;28;20117;-73
2021/09/02 11:36:21;;;;;;;7.55;3.92;;;21.70;93.10;;;;;;4993069;28;20054;-74
2021/09/02 11:38:48;;;;;;;6.40;4.15;;;21.90;92.60;;;;;;4989111;28;20050;-74
2021/09/02 11:41:22;;;;;;;6.88;4.45;;;22.30;91.30;;;;;;4986030;28;20064;-75
2021/09/02 11:43:51;;;;;;;6.03;4.03;;;22.50;89.20;;;;;;4988797;28;20441;-74
2021/09/02 11:46:17;;;;;;;7.45;4.63;;;22.90;88.90;;;;;;4983211;28;20402;-74
2021/09/02 11:48:45;;;;;;;6.78;4.00;;;23.30;83.40;;;;;;4987383;28;20065;-74
2021/09/02 11:51:10;;;;;;;6.40;4.22;;;23.80;81.20;;;;;;4989967;28;20026;-74
2021/09/02 11:53:36;;;;;;;5.85;3.92;;;24.20;81.80;;;;;;4990004;28;20453;-74
2021/09/02 11:56:20;;;;;;;7.00;3.75;;;24.70;80.60;;;;;;4986970;28;20040;-75
2021/09/02 11:58:46;;;;;;;7.20;4.10;;;25.30;78.40;;;;;;4978927;28;20448;-74
2021/09/02 12:01:14;;;;;;;5.57;3.70;;;25.90;70.90;;;;;;4989113;28;20041;-74
2021/09/02 12:03:39;;;;;;;9.80;4.28;;;26.40;69.80;;;;;;4989063;28;20106;-74
2021/09/02 12:06:05;;;;;;;7.32;3.55;;;26.80;66.60;;;;;;4988676;28;20109;-74
2021/09/02 12:08:31;;;;;;;6.82;3.75;;;27.20;65.30;;;;;;4989327;28;20471;-74
2021/09/02 12:10:57;;;;;;;8.00;3.92;;;27.40;62.80;;;;;;4986405;28;20050;-75
2021/09/02 12:13:36;;;;;;;5.75;3.80;;;27.40;62.10;;;;;;4989219;28;20069;-74
2021/09/02 12:16:07;;;;;;;5.65;3.63;;;27.70;62.60;;;;;;4986659;28;20259;-75
2021/09/02 12:18:35;;;;;;;7.00;4.28;;;28.10;60.60;;;;;;4987412;28;20033;-74
2021/09/02 12:21:24;;;;;;;6.78;3.95;;;27.80;59.50;;;;;;4981664;28;20054;-75
2021/09/02 12:24:11;;;;;;;8.15;4.40;;;27.60;62.90;;;;;;4987688;28;20037;-74
2021/09/02 12:26:45;;;;;;;7.13;4.28;;;27.00;62.00;;;;;;4987673;28;21190;-74
2021/09/02 12:29:15;;;;;;;7.55;3.80;;;26.90;62.80;;;;;;4981750;28;20030;-74
2021/09/02 12:31:41;;;;;;;7.72;3.65;;;27.30;62.40;;;;;;4985049;28;20092;-74
2021/09/02 12:34:11;;;;;;;8.18;3.72;;;28.00;58.90;;;;;;4981596;28;20034;-74
2021/09/02 12:36:41;;;;;;;8.90;4.50;;;28.60;58.40;;;;;;4984627;28;20045;-75
2021/09/02 12:39:13;;;;;;;;;;;29.20;58.20;;;;;;4985182;28;20600;-77
2021/09/02 12:41:48;;;;;;;5.07;3.65;;;29.70;57.90;;;;;;4983827;28;19932;-79
2021/09/02 12:44:24;;;;;;;14.90;3.85;;;30.30;57.50;;;;;;4979525;28;20034;-84
2021/09/02 12:47:00;;;;;;;10.45;4.30;;;30.70;53.30;;;;;;4984940;28;20108;-73
2021/09/02 12:49:31;;;;;;;7.90;3.70;;;31.10;53.70;;;;;;4983564;28;20026;-74